Aviation Digital Data Service (ADDS)

Output produced by METARs form (2231 UTC 30 March 2017)
found at http://www.aviationweather.gov/adds/metars/
 
TAF SBAT 301600Z 3018/3106 34005KT 9999 SCT025 FEW030TCU TX25/3018Z TN22/3106Z 
     PROB30 3019/3021 TS SCT020 FEW030CB 
     BECMG 3023/3101 00000KT SCT015 RMK PEO
       
TAF SBAN 301400Z 3018/3106 12005KT 9999 BKN020 FEW030TCU TX25/3018Z TN20/3105Z
     TEMPO 3018/3022 27010KT 4000 TSRA BKN015 FEW035CB
     FM302300 05004KT 9999 VCTS SCT015 FEW035CB
     FM310300 05003KT 9999 NSW SCT008 RMK PDC
       
TAF SBAR 302200Z 3100/3112 09008KT 7000 SCT016 TN25/3108Z TX28/3111Z 
     BECMG 3104/3106 05005KT RMK PEI
       
TAF SBBG 302100Z 3100/3124 06012KT CAVOK TN16/3110Z TX27/3118Z RMK PD N
       
TAF SBBW 301400Z 3018/3106 00000KT 9999 BKN020 FEW030TCU TX32/3018Z TN21/3105Z
     TEMPO 3018/3022 29010KT 7000 TSRA BKN015 FEW030CB 
     BECMG 3022/3023 04002KT 9999 VCTS SCT015 FEW030CB
     FM310330 09002KT 9999 FEW006 RMK PDC
       
TAF SBBU 301500Z 3018/3106 10011KT CAVOK TX31/3018Z TN18/3106Z RMK PDJ
       
TAF SBBE 302200Z 3100/3124 04008KT 9999 FEW020 TN24/3107Z TX31/3116Z 
     BECMG 3101/3103 06003KT CAVOK 
     BECMG 3108/3110 07005KT SCT015 
     BECMG 3114/31 16 06010KT BKN025 FEW030TCU 
     PROB30 3118/3120 36010KT 5000 TSRA BKN020 F EW025CB 
     BECMG 3120/3122 06003KT 9999 FEW020 RMK PEO
       
TAF SBCF 301400Z 3018/3118 12003KT 9000 NSC TX26/3019Z TN18/3109Z 
     BECMG 3022/3023 10006KT CAVOK 
     BECMG 3114/3116 21004KT 9000 NSC RMK PDC
       
TAF SBBV 302200Z 3100/3124 25008KT 9999 SCT030 FEW035TCU TN24/3107Z T X32/3118Z 
     BECMG 3102/3104 12005KT CAVOK 
     BECMG 3111/3113 09010KT 9999 SCT020 BE CMG 3115/3117 09015KT SCT030 FEW035TCU 
     BECMG 3116/3118 08015KT BKN030 FE W035TCU RMK PEO
       
TAF SBLP 301530Z 3018/3106 16005KT 8000 SCT020 TX26/3018Z TN22/3105Z 
     PROB40 3019/3022 6000 TS SCT017 FEW030CB RMK PEU
       
TAF COR SBBR 302200Z 3000/3024 21015KT 6000 TSRA SCT015 FEW030CB TN18 /3008Z TX26/3018Z 
     FM300330 00000KT 9999 NSW SCT015 
     FM300630 20008KT 3000 BR BKN005 
     FM301230 11009KT 9999 SCT020 
     FM301530 36010KT 9999 SCT030 FEW035TCU 
     FM301800 VRB12KT 9999 TS VCSH SCT030 FEW035CB 
     FM302330 VRB05KT 9999 NSW FEW030 FEW035TCU RMK PDF
       
TAF SBCB 302045Z 3100/3124 24010KT 9999 SCT017 TN23/3109Z TX27/3117Z 
     BECMG 3102/3104 27005KT 
     BECMG 3108/3110 30005KT 7000 BKN016 
     BECMG 3112/311 4 23015KT 9999 SCT020 
     PROB40 
     TEMPO 3117/3123 6000 RA BKN015 RMK PGB
       
TAF SBKG 301530Z 3018/3106 08012KT 8000 SCT025 TX31/3018Z TN24/3105Z 
     BECMG 3102/3103 08007KT BKN010 RMK PEU
       
TAF SBKP 301604Z 3018/3118 15010KT CAVOK TX26/3018Z TN16/3109Z 
     BECMG 3020/3022 14012KT 
     BECMG 3103/3105 12010KT 
     BECMG 3115/3117 13010KT FEW040 RMK PGM
       
TAF SBCG 302100Z 3100/3124 10008KT 9999 FEW025 TN21/3110Z TX31/3118Z 
     PROB30 3103/3110 CAVOK 
     BECMG 3114/3117 SCT030 RMK PDN
       
TAF SBCP 301440Z 3018/3106 20010KT 8000 SCT020TX30/3018Z TN20/3106Z 
     BECMG 3018/3020 18010KT 
     BECMG 3020/3023 22007KT RMK PGW
       
TAF SBCR 302100Z 3100/3124 10002KT 9999 SCT025 TN24/3110Z TX30/3117Z 
     PROB40 3105/3113 06002KT 
     PROB40 3116/3121 VCSH FEW035TCU RMK PDN
       
TAF SBCZ 302200Z 3100/3124 23003KT 9999 SCT025 TN22/3108Z TX29/3118Z 
     BECMG 3103/3105 30005KT SCT010 
     BECMG 3108/3110 BKN008 
     BECMG 3113/3115 0600 5KT SCT015 
     BECMG 3115/3117 BKN020 FEW025TCU 
     TEMPO 3119/3122 09010KT 5000 TSRA BKN010 FEW025CB RMK PEO
       
TAF SBCY 302200Z 3100/3124 21005KT 9999 FEW020 FEW025TCU TN24/3107Z T X30/3118Z 
     BECMG 3103/3105 34005KT FEW020 
     BECMG 3114/3116 SCT020 
     BECMG 3116/311 8 33008KT SCT020 FEW025TCU RMK PEO
       
TAF SBCT 302100Z 3100/3124 13008KT 9999 SCT020 TN13/3110Z TX22/3118Z 
     PROB40 3100/3103 SCT005 
     PROB40 3103/3111 BKN005 RMK PDN
       
TAF SBBI 301500Z 3018/3106 12004KT 9999 BKN020 TX22/3018Z TN15/3106Z 
     PROB30 
     TEMPO 3018/3020 8000 RA BKN010 BKN020 
     BECMG 3022/3024 12004KT BKN008 
     BECMG 3100/3102 BKN006 RMK PDJ
       
TAF SBFN 302200Z 3100/3112 12010KT 8000 SCT017 TN26/3108Z TX29/3111Z RMK PEI
       
TAF SBFL 302100Z 3100/3124 17010KT 9999 FEW020 TN20/3110Z TX26/3118Z 
     PROB40 3100/3106 BKN020 RMK PDN
       
TAF SBFZ 302200Z 3100/3124 06005KT 8000 SCT020 TN25/3108Z TX31/3114Z 
     BECMG 3104/3106 17005KT BKN020 
     TEMPO 3108/3110 5000 RA 
     BECMG 3114/3116 090 09KT SCT020 
     TEMPO 3118/3119 5000 RA BKN015 FEW025TCU RMK PEI
       
TAF SBFI 302100Z 3100/3124 12006KT CAVOK TN20/3110Z TX32/3118Z 
     PROB30 3117/3122 FEW035 RMK PDN
       
TAF SBGO 301400Z 3018/3118 11005KT 9999 FEW040TCU TX29/3018Z TN21/310 8Z 
     PROB40 3018/3022 01007KT 7000 TSRA BKN030 FEW040CB 
     BECMG 3022/3023 01004KT 9999 VCTS FEW040CB 
     FM310300 00000KT 9999 NSW FEW010 
     BECMG 3114/3116 06003KT 9999 FEW035TCU RMK PDC
       
TAF SBGW 301440Z 3018/3106 18005KT 8000 SCT020TX27/3018Z TN21/3106Z 
     BECMG 3018/3020 15005KT 
     BECMG 3020/3022 18005KT RMK PGW
       
TAF SBIL 301530Z 3018/3106 11005KT 8000 SCT017 TX28/3018Z TN23/3105Z 
     TEMPO 3020/3024 4000 RA BKN012 
     BECMG 3023/3101 24005KT 
     PROB40 
     TEMPO 3101/3105 6000 RMK PEU
       
TAF SBIZ 301600Z 3018/3106 21005KT 9999 BKN020 TX33/3018Z TN23/3106Z 
     PROB30 3018/3020 24008KT 8000 TSRA SCT025 FEW030CB 
     BECMG 3101/3103 06003KT SCT015 RMK PEO
       
TAF SBIH 301600Z 3018/3106 03005KT 9999 SCT020 FEW025TCU TX30/3019Z TN22/3106Z 
     PROB30 3019/3021 TS SCT015 FEW025CB 
     BECMG 3021/3023 00000KT FEW020 RMK PEO